createdAt,value
2019-04-25T00:00:40.567Z,15.00
2019-04-25T00:01:44.770Z,15.00
2019-04-25T00:02:46.480Z,15.00
2019-04-25T00:03:47.572Z,15.00
2019-04-25T00:04:48.578Z,15.00
2019-04-25T00:05:49.595Z,15.00
2019-04-25T00:06:52.142Z,15.00
2019-04-25T00:07:53.440Z,15.00
2019-04-25T00:08:54.477Z,15.00
2019-04-25T00:09:55.880Z,15.00
2019-04-25T00:10:57.082Z,15.00
2019-04-25T00:11:59.746Z,15.00
2019-04-25T00:13:01.662Z,15.00
2019-04-25T00:14:04.836Z,15.00
2019-04-25T00:15:06.361Z,15.00
2019-04-25T00:16:07.369Z,15.00
2019-04-25T00:17:08.477Z,15.00
2019-04-25T00:18:09.691Z,15.00
2019-04-25T00:19:11.743Z,15.00
2019-04-25T00:20:13.209Z,15.00
2019-04-25T00:21:16.129Z,14.90
2019-04-25T00:22:25.032Z,14.90
2019-04-25T00:23:26.042Z,14.90
2019-04-25T00:24:47.235Z,14.90
2019-04-25T00:25:52.823Z,14.90
2019-04-25T00:26:53.869Z,14.90
2019-04-25T00:27:54.874Z,14.90
2019-04-25T00:28:55.996Z,14.80
2019-04-25T00:29:56.996Z,14.80
2019-04-25T00:30:58.129Z,14.80
2019-04-25T00:31:59.140Z,14.80
2019-04-25T00:33:01.906Z,14.70
2019-04-25T00:34:03.607Z,14.80
2019-04-25T00:35:04.720Z,14.70
2019-04-25T00:36:05.742Z,14.70
2019-04-25T00:37:06.852Z,14.70
2019-04-25T00:38:07.860Z,14.70
2019-04-25T00:39:08.883Z,14.70
2019-04-25T00:40:10.198Z,14.70
2019-04-25T00:41:11.603Z,14.60
2019-04-25T00:42:12.836Z,14.60
2019-04-25T00:43:13.860Z,14.60
2019-04-25T00:44:14.874Z,14.50
2019-04-25T00:45:15.888Z,14.50
2019-04-25T00:46:16.896Z,14.50
2019-04-25T00:47:17.916Z,14.50
2019-04-25T00:48:18.933Z,14.50
2019-04-25T00:49:19.956Z,14.50
2019-04-25T00:50:21.932Z,14.50
2019-04-25T00:51:23.122Z,14.60
2019-04-25T00:52:24.127Z,14.60
2019-04-25T00:53:25.148Z,14.60
2019-04-25T00:54:26.176Z,14.60
2019-04-25T00:55:28.978Z,14.60
2019-04-25T00:56:30.111Z,14.60
2019-04-25T00:57:32.078Z,14.60
2019-04-25T00:58:37.964Z,14.60
2019-04-25T00:59:41.916Z,14.60
2019-04-25T01:00:46.916Z,14.60
2019-04-25T01:02:02.048Z,14.60
2019-04-25T01:03:05.081Z,14.50
2019-04-25T01:04:06.088Z,14.40
2019-04-25T01:05:07.716Z,14.40
2019-04-25T01:06:08.741Z,14.40
2019-04-25T01:07:09.757Z,14.30
2019-04-25T01:08:12.036Z,14.30
2019-04-25T01:09:15.019Z,14.30
2019-04-25T01:10:16.545Z,14.30
2019-04-25T01:11:17.559Z,14.30
2019-04-25T01:12:18.975Z,14.30
2019-04-25T01:13:20.188Z,14.20
2019-04-25T01:14:21.817Z,14.20
2019-04-25T01:15:23.332Z,14.20
2019-04-25T01:16:24.374Z,14.20
2019-04-25T01:17:25.384Z,14.20
2019-04-25T01:18:27.412Z,14.10
2019-04-25T01:19:28.503Z,14.10
2019-04-25T01:20:29.528Z,14.00
2019-04-25T01:21:30.548Z,14.10
2019-04-25T01:22:31.566Z,14.00
2019-04-25T01:23:33.666Z,14.00
2019-04-25T01:24:34.813Z,14.00
2019-04-25T01:25:42.249Z,14.00
2019-04-25T01:26:38.862Z,14.00
2019-04-25T01:27:39.972Z,14.00
2019-04-25T01:28:40.988Z,14.00
2019-04-25T01:29:41.996Z,13.90
2019-04-25T01:30:43.864Z,13.90
2019-04-25T01:31:46.489Z,13.90
2019-04-25T01:32:48.313Z,13.80
2019-04-25T01:33:50.300Z,13.80
2019-04-25T01:35:00.079Z,13.80
2019-04-25T01:36:15.763Z,13.70
2019-04-25T01:37:21.359Z,13.70
2019-04-25T01:38:39.422Z,13.70
2019-04-25T01:39:44.084Z,13.70
2019-04-25T01:40:49.955Z,13.80
2019-04-25T01:41:56.133Z,13.80
2019-04-25T01:42:59.148Z,13.80
2019-04-25T01:44:02.066Z,13.70
2019-04-25T01:45:05.484Z,13.70
2019-04-25T01:46:07.505Z,13.70
2019-04-25T01:47:09.024Z,13.60
2019-04-25T01:48:10.052Z,13.60
2019-04-25T01:49:11.052Z,13.60
2019-04-25T01:50:13.668Z,13.50
2019-04-25T01:51:14.906Z,13.50
2019-04-25T01:52:16.022Z,13.40
2019-04-25T01:53:17.138Z,13.40
2019-04-25T01:54:20.467Z,13.30
2019-04-25T01:55:23.096Z,13.30
2019-04-25T01:56:24.816Z,13.30
2019-04-25T01:57:25.961Z,13.30
2019-04-25T01:58:27.069Z,13.30
2019-04-25T01:59:28.080Z,13.30
2019-04-25T02:00:43.173Z,13.30
2019-04-25T02:01:45.736Z,13.20
2019-04-25T02:02:46.757Z,13.20
2019-04-25T02:03:47.775Z,13.20
2019-04-25T02:04:48.883Z,13.20
2019-04-25T02:05:51.288Z,13.10
2019-04-25T02:06:54.356Z,13.10
2019-04-25T02:07:55.836Z,13.10
2019-04-25T02:08:57.228Z,13.10
2019-04-25T02:09:58.288Z,13.10
2019-04-25T02:11:09.988Z,13.00
2019-04-25T02:12:13.498Z,13.00
2019-04-25T02:13:25.561Z,13.10
2019-04-25T02:14:26.576Z,13.00
2019-04-25T02:15:29.496Z,13.00
2019-04-25T02:16:30.520Z,13.00
2019-04-25T02:17:31.543Z,13.00
2019-04-25T02:18:33.594Z,13.10
2019-04-25T02:19:35.712Z,13.10
2019-04-25T02:20:36.992Z,13.10
2019-04-25T02:21:38.024Z,13.10
2019-04-25T02:22:39.240Z,13.00
2019-04-25T02:23:40.252Z,13.10
2019-04-25T02:24:41.269Z,13.10
2019-04-25T02:25:44.070Z,13.10
2019-04-25T02:26:45.340Z,13.10
2019-04-25T02:27:46.357Z,13.10
2019-04-25T02:28:47.376Z,13.10
2019-04-25T02:29:48.393Z,13.10
2019-04-25T02:30:49.426Z,13.10
2019-04-25T02:31:50.533Z,13.10
2019-04-25T02:32:55.394Z,13.10
2019-04-25T02:33:57.899Z,13.10
2019-04-25T02:35:00.962Z,13.10
2019-04-25T02:36:02.628Z,13.10
2019-04-25T02:37:08.674Z,13.10
2019-04-25T02:38:08.810Z,13.10
2019-04-25T02:39:17.330Z,13.10
2019-04-25T02:40:19.440Z,13.10
2019-04-25T02:41:20.485Z,13.10
2019-04-25T02:42:24.395Z,13.10
2019-04-25T02:43:24.497Z,13.10
2019-04-25T02:44:25.806Z,13.10
2019-04-25T02:45:31.216Z,13.10
2019-04-25T02:46:37.344Z,13.20
2019-04-25T02:47:44.138Z,13.20
2019-04-25T02:48:47.820Z,13.30
2019-04-25T02:50:08.492Z,13.30
2019-04-25T02:51:16.128Z,13.30
2019-04-25T02:52:21.769Z,13.30
2019-04-25T02:53:30.789Z,13.40
2019-04-25T02:54:31.805Z,13.40
2019-04-25T02:55:36.905Z,13.40
2019-04-25T02:56:38.817Z,13.40
2019-04-25T02:57:38.682Z,13.50
2019-04-25T02:58:39.700Z,13.50
2019-04-25T02:59:40.725Z,13.50
2019-04-25T03:00:55.060Z,13.50
2019-04-25T03:01:45.066Z,13.50
2019-04-25T03:02:46.603Z,13.60
2019-04-25T03:03:50.474Z,13.60
2019-04-25T03:04:51.476Z,13.60
2019-04-25T03:05:54.756Z,13.60
2019-04-25T03:06:58.367Z,13.60
2019-04-25T03:07:59.983Z,13.60
2019-04-25T03:09:07.428Z,13.60
2019-04-25T03:10:09.951Z,13.60
2019-04-25T03:11:11.012Z,13.60
2019-04-25T03:12:26.538Z,13.60
2019-04-25T03:13:15.136Z,13.60
2019-04-25T03:14:16.287Z,13.60
2019-04-25T03:15:17.404Z,13.60
2019-04-25T03:16:18.420Z,13.60
2019-04-25T03:17:19.429Z,13.60
2019-04-25T03:18:24.662Z,13.60
2019-04-25T03:19:27.187Z,13.60
2019-04-25T03:20:35.285Z,13.60
2019-04-25T03:21:37.460Z,13.60
2019-04-25T03:22:38.482Z,13.50
2019-04-25T03:23:42.455Z,13.60
2019-04-25T03:24:42.414Z,13.60
2019-04-25T03:25:43.547Z,13.50
2019-04-25T03:26:44.651Z,13.50
2019-04-25T03:27:45.664Z,13.50
2019-04-25T03:28:46.706Z,13.50
2019-04-25T03:29:47.772Z,13.50
2019-04-25T03:30:48.841Z,13.50
2019-04-25T03:31:49.859Z,13.50
2019-04-25T03:32:51.662Z,13.50
2019-04-25T03:33:55.579Z,13.50
2019-04-25T03:34:55.819Z,13.50
2019-04-25T03:35:56.947Z,13.50
2019-04-25T03:36:57.960Z,13.50
2019-04-25T03:37:58.999Z,13.50
2019-04-25T03:39:00.846Z,13.50
2019-04-25T03:40:06.515Z,13.50
2019-04-25T03:41:08.471Z,13.50
2019-04-25T03:42:09.922Z,13.50
2019-04-25T03:43:11.840Z,13.40
2019-04-25T03:44:13.983Z,13.50
2019-04-25T03:45:15.090Z,13.40
2019-04-25T03:46:16.109Z,13.40
2019-04-25T03:47:17.132Z,13.40
2019-04-25T03:48:18.159Z,13.40
2019-04-25T03:49:19.173Z,13.40
2019-04-25T03:50:20.192Z,13.40
2019-04-25T03:51:21.316Z,13.40
2019-04-25T03:52:23.889Z,13.30
2019-04-25T03:53:25.084Z,13.30
2019-04-25T03:54:26.101Z,13.30
2019-04-25T03:55:27.225Z,13.30
2019-04-25T03:56:28.253Z,13.30
2019-04-25T03:57:29.268Z,13.30
2019-04-25T03:58:30.305Z,13.30
2019-04-25T03:59:31.328Z,13.30
2019-04-25T04:00:34.491Z,13.20
2019-04-25T04:01:35.780Z,13.20
2019-04-25T04:02:36.796Z,13.20
2019-04-25T04:03:37.848Z,13.20
2019-04-25T04:04:38.869Z,13.10
2019-04-25T04:05:39.896Z,13.20
2019-04-25T04:06:41.003Z,13.20
2019-04-25T04:07:43.414Z,13.20
2019-04-25T04:08:44.672Z,13.20
2019-04-25T04:09:45.680Z,13.20
2019-04-25T04:10:46.736Z,13.20
2019-04-25T04:11:47.768Z,13.20
2019-04-25T04:12:48.781Z,13.20
2019-04-25T04:13:49.820Z,13.20
2019-04-25T04:14:50.838Z,13.20
2019-04-25T04:15:53.219Z,13.10
2019-04-25T04:17:15.941Z,13.10
2019-04-25T04:18:26.924Z,13.20
2019-04-25T04:19:27.996Z,13.20
2019-04-25T04:20:30.922Z,13.10
2019-04-25T04:21:39.736Z,13.20
2019-04-25T04:22:43.855Z,13.20
2019-04-25T04:24:04.095Z,13.10
2019-04-25T04:25:07.627Z,13.00
2019-04-25T04:26:09.517Z,12.90
2019-04-25T04:27:12.166Z,12.90
2019-04-25T04:28:14.053Z,12.80
2019-04-25T04:29:16.488Z,12.80
2019-04-25T04:30:17.593Z,12.80
2019-04-25T04:31:18.617Z,12.80
2019-04-25T04:32:19.735Z,12.70
2019-04-25T04:33:29.473Z,12.70
2019-04-25T04:34:23.717Z,12.70
2019-04-25T04:35:24.748Z,12.60
2019-04-25T04:36:25.773Z,12.60
2019-04-25T04:37:26.797Z,12.60
2019-04-25T04:38:27.824Z,12.60
2019-04-25T04:39:28.973Z,12.70
2019-04-25T04:40:30.006Z,12.70
2019-04-25T04:41:31.020Z,12.70
2019-04-25T04:42:33.650Z,12.70
2019-04-25T04:43:34.771Z,12.80
2019-04-25T04:44:35.903Z,12.90
2019-04-25T04:45:36.921Z,12.90
2019-04-25T04:46:37.944Z,13.00
2019-04-25T04:47:38.963Z,13.00
2019-04-25T04:48:39.980Z,13.00
2019-04-25T04:49:41.009Z,13.10
2019-04-25T04:50:43.448Z,13.00
2019-04-25T04:51:44.555Z,13.10
2019-04-25T04:52:45.568Z,13.10
2019-04-25T04:53:46.587Z,13.10
2019-04-25T04:54:47.622Z,13.10
2019-04-25T04:55:48.645Z,13.10
2019-04-25T04:56:49.660Z,13.20
2019-04-25T04:57:50.680Z,13.20
2019-04-25T04:58:51.701Z,13.20
2019-04-25T04:59:53.612Z,13.20
2019-04-25T05:00:54.758Z,13.20
2019-04-25T05:02:11.325Z,13.20
2019-04-25T05:03:14.898Z,13.30
2019-04-25T05:04:19.076Z,13.30
2019-04-25T05:05:23.524Z,13.30
2019-04-25T05:06:26.904Z,13.30
2019-04-25T05:07:38.521Z,13.30
2019-04-25T05:08:41.456Z,13.30
2019-04-25T05:09:43.546Z,13.30
2019-04-25T05:10:44.718Z,13.40
2019-04-25T05:11:45.756Z,13.40
2019-04-25T05:12:46.782Z,13.40
2019-04-25T05:13:47.814Z,13.40
2019-04-25T05:14:48.852Z,13.40
2019-04-25T05:15:49.952Z,13.40
2019-04-25T05:16:50.964Z,13.50
2019-04-25T05:17:51.982Z,13.50
2019-04-25T05:18:55.048Z,13.60
2019-04-25T05:19:55.922Z,13.60
2019-04-25T05:20:56.944Z,13.60
2019-04-25T05:21:57.958Z,13.60
2019-04-25T05:22:58.978Z,13.70
2019-04-25T05:24:00.000Z,13.70
2019-04-25T05:25:01.125Z,13.70
2019-04-25T05:26:04.257Z,13.70
2019-04-25T05:27:05.379Z,13.80
2019-04-25T05:28:06.400Z,13.80
2019-04-25T05:29:07.522Z,13.90
2019-04-25T05:30:10.737Z,13.90
2019-04-25T05:31:22.285Z,14.00
2019-04-25T05:32:24.971Z,14.00
2019-04-25T05:33:26.222Z,14.10
2019-04-25T05:34:27.232Z,14.10
2019-04-25T05:35:28.288Z,14.20
2019-04-25T05:36:31.192Z,14.30
2019-04-25T05:37:33.509Z,14.40
2019-04-25T05:38:34.749Z,14.50
2019-04-25T05:39:35.759Z,14.60
2019-04-25T05:40:38.688Z,14.70
2019-04-25T05:41:58.069Z,14.80
2019-04-25T05:43:00.985Z,14.90
2019-04-25T05:44:02.016Z,15.00
2019-04-25T05:45:04.747Z,15.20
2019-04-25T05:46:05.773Z,15.20
2019-04-25T05:47:06.794Z,15.30
2019-04-25T05:48:07.804Z,15.40
2019-04-25T05:49:08.939Z,15.40
2019-04-25T05:50:10.246Z,15.50
2019-04-25T05:51:11.280Z,15.60
2019-04-25T05:52:13.887Z,15.70
2019-04-25T05:53:16.191Z,15.80
2019-04-25T05:54:17.986Z,15.80
2019-04-25T05:55:20.228Z,15.80
2019-04-25T05:56:24.047Z,15.80
2019-04-25T05:57:26.027Z,15.80
2019-04-25T05:58:27.244Z,15.90
2019-04-25T05:59:28.324Z,15.90
2019-04-25T06:00:29.356Z,15.90
2019-04-25T06:01:30.373Z,15.90
2019-04-25T06:02:31.392Z,15.90
2019-04-25T06:03:33.814Z,15.80
2019-04-25T06:04:35.266Z,15.80
2019-04-25T06:05:36.284Z,15.80
2019-04-25T06:06:37.340Z,15.90
2019-04-25T06:07:38.380Z,15.90
2019-04-25T06:08:41.305Z,15.90
2019-04-25T06:09:44.463Z,15.90
2019-04-25T06:10:56.632Z,15.90
2019-04-25T06:12:03.092Z,15.90
2019-04-25T06:13:07.197Z,16.00
2019-04-25T06:14:10.146Z,16.00
2019-04-25T06:15:13.118Z,16.00
2019-04-25T06:16:16.289Z,16.00
2019-04-25T06:17:37.340Z,16.00
2019-04-25T06:18:44.013Z,15.90
2019-04-25T06:19:55.413Z,15.90
2019-04-25T06:20:56.424Z,16.00
2019-04-25T06:21:57.647Z,16.00
2019-04-25T06:23:06.465Z,16.00
2019-04-25T06:24:23.644Z,16.00
2019-04-25T06:25:30.783Z,15.90
2019-04-25T06:26:35.033Z,15.90
2019-04-25T06:27:36.381Z,15.90
2019-04-25T06:28:48.994Z,15.90
2019-04-25T06:29:40.428Z,15.80
2019-04-25T06:30:41.612Z,15.90
2019-04-25T06:31:43.896Z,15.90
2019-04-25T06:32:45.060Z,15.90
2019-04-25T06:33:46.147Z,16.00
2019-04-25T06:34:47.285Z,16.00
2019-04-25T06:35:48.309Z,16.00
2019-04-25T06:36:49.341Z,16.10
2019-04-25T06:37:50.374Z,16.10
2019-04-25T06:38:51.383Z,16.10
2019-04-25T06:39:53.707Z,16.10
2019-04-25T06:40:54.836Z,16.10
2019-04-25T06:41:55.861Z,16.10
2019-04-25T06:42:56.873Z,16.10
2019-04-25T06:43:59.793Z,16.20
2019-04-25T06:45:03.549Z,16.20
2019-04-25T06:46:24.813Z,16.20
2019-04-25T06:47:44.625Z,16.30
2019-04-25T06:48:47.535Z,16.30
2019-04-25T06:49:48.556Z,16.20
2019-04-25T06:50:49.635Z,16.20
2019-04-25T06:51:51.753Z,16.20
2019-04-25T06:52:53.726Z,16.20
2019-04-25T06:53:54.990Z,16.20
2019-04-25T06:54:56.015Z,16.20
2019-04-25T06:55:57.042Z,16.20
2019-04-25T06:56:58.065Z,16.20
2019-04-25T06:58:09.109Z,16.20
2019-04-25T06:59:03.416Z,16.20
2019-04-25T07:00:07.243Z,16.30
2019-04-25T07:01:08.252Z,16.20
2019-04-25T07:02:09.325Z,16.30
2019-04-25T07:03:10.417Z,16.30
2019-04-25T07:04:11.740Z,16.30
2019-04-25T07:05:26.125Z,16.40
2019-04-25T07:06:16.060Z,16.50
2019-04-25T07:07:17.100Z,16.50
2019-04-25T07:08:18.116Z,16.50
2019-04-25T07:09:19.140Z,16.60
2019-04-25T07:10:20.260Z,16.60
2019-04-25T07:11:21.276Z,16.70
2019-04-25T07:12:24.951Z,16.80
2019-04-25T07:13:26.719Z,16.70
2019-04-25T07:14:28.389Z,16.80
2019-04-25T07:15:29.558Z,16.80
2019-04-25T07:16:31.556Z,16.90
2019-04-25T07:17:34.999Z,16.90
2019-04-25T07:18:37.373Z,16.90
2019-04-25T07:19:38.452Z,17.00
2019-04-25T07:20:39.484Z,17.10
2019-04-25T07:21:40.504Z,17.20
2019-04-25T07:22:41.528Z,17.20
2019-04-25T07:23:43.514Z,17.20
2019-04-25T07:24:45.492Z,17.30
2019-04-25T07:25:48.392Z,17.30
2019-04-25T07:27:07.936Z,17.40
2019-04-25T07:28:22.249Z,17.40
2019-04-25T07:29:16.181Z,17.50
2019-04-25T07:30:48.482Z,17.60
2019-04-25T07:31:46.693Z,17.60
2019-04-25T07:32:49.632Z,17.70
2019-04-25T07:33:53.266Z,17.70
2019-04-25T07:34:55.123Z,17.80
2019-04-25T07:35:57.079Z,17.80
2019-04-25T07:36:58.268Z,17.90
2019-04-25T07:37:59.288Z,17.90
2019-04-25T07:39:09.715Z,18.00
2019-04-25T07:40:06.538Z,18.00
2019-04-25T07:41:07.596Z,18.10
2019-04-25T07:42:08.606Z,18.10
2019-04-25T07:43:09.624Z,18.20
2019-04-25T07:44:10.636Z,18.20
2019-04-25T07:45:14.084Z,18.30
2019-04-25T07:46:15.273Z,18.30
2019-04-25T07:47:16.389Z,18.40
2019-04-25T07:48:17.460Z,18.40
2019-04-25T07:49:18.492Z,18.50
2019-04-25T07:50:19.756Z,18.50
2019-04-25T07:51:20.772Z,18.60
2019-04-25T07:52:23.265Z,18.60
2019-04-25T07:53:26.986Z,18.80
2019-04-25T07:54:27.901Z,18.80
2019-04-25T07:55:31.073Z,18.90
2019-04-25T07:56:32.176Z,18.90
2019-04-25T07:57:34.592Z,19.00
2019-04-25T07:58:49.634Z,19.00
2019-04-25T07:59:43.526Z,19.10
2019-04-25T08:00:44.725Z,19.10
2019-04-25T08:01:46.008Z,19.20
2019-04-25T08:02:47.033Z,19.20
2019-04-25T08:03:48.155Z,19.30
2019-04-25T08:04:49.177Z,19.30
2019-04-25T08:05:50.200Z,19.30
2019-04-25T08:06:51.212Z,19.40
2019-04-25T08:07:53.604Z,19.40
2019-04-25T08:08:54.888Z,19.40
2019-04-25T08:09:55.940Z,19.40
2019-04-25T08:11:04.176Z,19.50
2019-04-25T08:12:05.457Z,19.50
2019-04-25T08:13:06.471Z,19.50
2019-04-25T08:14:09.400Z,19.60
2019-04-25T08:15:13.874Z,19.60
2019-04-25T08:16:20.049Z,19.60
2019-04-25T08:17:39.882Z,19.70
2019-04-25T08:18:43.300Z,19.70
2019-04-25T08:19:44.984Z,19.80
2019-04-25T08:20:46.549Z,19.80
2019-04-25T08:21:48.344Z,19.80
2019-04-25T08:22:56.650Z,19.90
2019-04-25T08:23:53.414Z,19.90
2019-04-25T08:24:55.415Z,19.90
2019-04-25T08:25:56.447Z,20.00
2019-04-25T08:26:57.449Z,20.00
2019-04-25T08:27:58.875Z,20.10
2019-04-25T08:29:00.008Z,20.10
2019-04-25T08:30:01.335Z,20.10
2019-04-25T08:31:03.606Z,20.20
2019-04-25T08:32:04.857Z,20.20
2019-04-25T08:33:05.891Z,20.20
2019-04-25T08:34:06.908Z,20.20
2019-04-25T08:35:08.044Z,20.30
2019-04-25T08:36:09.454Z,20.30
2019-04-25T08:37:18.129Z,20.30
2019-04-25T08:38:13.793Z,20.30
2019-04-25T08:39:14.909Z,20.40
2019-04-25T08:40:16.937Z,20.50
2019-04-25T08:41:17.978Z,20.50
2019-04-25T08:42:18.993Z,20.60
2019-04-25T08:43:20.030Z,20.60
2019-04-25T08:44:21.147Z,20.70
2019-04-25T08:45:24.556Z,20.70
2019-04-25T08:46:25.789Z,20.80
2019-04-25T08:47:26.800Z,20.80
2019-04-25T08:48:34.328Z,20.80
2019-04-25T08:49:38.147Z,20.90
2019-04-25T08:50:46.972Z,20.90
2019-04-25T08:51:49.896Z,20.90
2019-04-25T08:52:50.905Z,21.00
2019-04-25T08:53:53.823Z,21.00
2019-04-25T08:54:57.627Z,21.00
2019-04-25T08:56:00.664Z,21.00
2019-04-25T08:57:04.307Z,21.00
2019-04-25T08:58:07.520Z,21.10
2019-04-25T08:59:16.701Z,21.10
2019-04-25T09:00:38.249Z,21.10
2019-04-25T09:01:41.999Z,21.10
2019-04-25T09:02:46.025Z,21.10
2019-04-25T09:03:48.949Z,21.10
2019-04-25T09:04:57.392Z,21.10
2019-04-25T09:05:58.455Z,21.10
2019-04-25T09:06:59.532Z,21.20
2019-04-25T09:08:00.535Z,21.20
2019-04-25T09:09:01.572Z,21.20
2019-04-25T09:10:05.097Z,21.20
2019-04-25T09:11:06.106Z,21.20
2019-04-25T09:12:07.130Z,21.20
2019-04-25T09:13:08.140Z,21.30
2019-04-25T09:14:09.266Z,21.30
2019-04-25T09:15:10.598Z,21.40
2019-04-25T09:16:11.612Z,21.40
2019-04-25T09:17:14.184Z,21.50
2019-04-25T09:18:15.364Z,21.50
2019-04-25T09:19:16.375Z,21.60
2019-04-25T09:20:17.613Z,21.60
2019-04-25T09:21:18.621Z,21.60
2019-04-25T09:22:19.632Z,21.70
2019-04-25T09:23:20.643Z,21.70
2019-04-25T09:24:21.659Z,21.70
2019-04-25T09:25:23.797Z,21.80
2019-04-25T09:26:25.200Z,21.80
2019-04-25T09:27:26.220Z,21.80
2019-04-25T09:28:27.240Z,21.80
2019-04-25T09:29:28.571Z,21.90
2019-04-25T09:30:29.601Z,21.90
2019-04-25T09:31:30.620Z,22.00
2019-04-25T09:32:31.637Z,22.00
2019-04-25T09:33:34.166Z,22.00
2019-04-25T09:34:35.590Z,22.00
2019-04-25T09:35:37.565Z,22.10
2019-04-25T09:36:38.829Z,22.10
2019-04-25T09:37:40.799Z,22.10
2019-04-25T09:38:41.961Z,22.20
2019-04-25T09:39:45.469Z,22.20
2019-04-25T09:40:46.741Z,22.30
2019-04-25T09:41:47.828Z,22.30
2019-04-25T09:42:48.848Z,22.30
2019-04-25T09:43:52.972Z,22.30
2019-04-25T09:45:13.341Z,22.40
2019-04-25T09:46:20.324Z,22.40
2019-04-25T09:47:21.341Z,22.40
2019-04-25T09:48:24.261Z,22.40
2019-04-25T09:49:30.027Z,22.50
2019-04-25T09:50:35.807Z,22.50
2019-04-25T09:51:42.408Z,22.50
2019-04-25T09:52:46.949Z,22.50
2019-04-25T09:53:50.971Z,22.60
2019-04-25T09:54:54.876Z,22.60
2019-04-25T09:56:14.024Z,22.60
2019-04-25T09:57:33.756Z,22.70
2019-04-25T09:58:36.688Z,22.70
2019-04-25T09:59:37.684Z,22.70
2019-04-25T10:00:40.620Z,22.80
2019-04-25T10:01:43.956Z,22.80
2019-04-25T10:02:45.708Z,22.80
2019-04-25T10:03:47.337Z,22.80
2019-04-25T10:04:48.449Z,22.80
2019-04-25T10:05:49.675Z,22.80
2019-04-25T10:06:50.692Z,22.90
2019-04-25T10:07:53.228Z,22.90
2019-04-25T10:08:54.464Z,22.90
2019-04-25T10:09:56.023Z,23.00
2019-04-25T10:10:57.100Z,23.00
2019-04-25T10:11:58.112Z,23.00
2019-04-25T10:12:59.231Z,23.10
2019-04-25T10:14:24.864Z,23.10
2019-04-25T10:15:42.433Z,23.20
2019-04-25T10:16:44.463Z,23.20
2019-04-25T10:17:46.684Z,23.20
2019-04-25T10:18:47.692Z,23.20
2019-04-25T10:19:48.697Z,23.20
2019-04-25T10:20:50.124Z,23.20
2019-04-25T10:21:53.417Z,23.30
2019-04-25T10:22:54.059Z,23.30
2019-04-25T10:23:55.074Z,23.30
2019-04-25T10:25:00.316Z,23.40
2019-04-25T10:25:59.125Z,23.40
2019-04-25T10:27:00.540Z,23.40
2019-04-25T10:28:01.668Z,23.50
2019-04-25T10:29:03.626Z,23.50
2019-04-25T10:30:16.827Z,23.60
2019-04-25T10:31:08.281Z,23.60
2019-04-25T10:32:09.691Z,23.60
2019-04-25T10:33:12.112Z,23.70
2019-04-25T10:34:14.052Z,23.70
2019-04-25T10:35:15.352Z,23.70
2019-04-25T10:36:16.385Z,23.80
2019-04-25T10:37:17.497Z,23.80
2019-04-25T10:38:18.613Z,23.80
2019-04-25T10:39:19.655Z,23.80
2019-04-25T10:40:23.446Z,23.90
2019-04-25T10:41:24.563Z,23.90
2019-04-25T10:42:25.818Z,24.00
2019-04-25T10:43:26.824Z,23.90
2019-04-25T10:44:27.851Z,24.00
2019-04-25T10:45:28.892Z,24.00
2019-04-25T10:46:29.917Z,24.00
2019-04-25T10:47:31.036Z,24.00
2019-04-25T10:48:32.245Z,24.00
2019-04-25T10:49:34.497Z,24.10
2019-04-25T10:50:35.676Z,24.10
2019-04-25T10:51:36.727Z,24.20
2019-04-25T10:52:37.741Z,24.20
2019-04-25T10:53:38.766Z,24.30
2019-04-25T10:54:39.868Z,24.30
2019-04-25T10:55:41.403Z,24.30
2019-04-25T10:56:44.528Z,24.40
2019-04-25T10:57:46.522Z,24.40
2019-04-25T10:58:47.973Z,24.50
2019-04-25T11:00:00.751Z,24.50
2019-04-25T11:00:52.987Z,24.60
2019-04-25T11:01:55.152Z,24.60
2019-04-25T11:02:58.241Z,24.60
2019-04-25T11:04:01.167Z,24.60
2019-04-25T11:05:08.700Z,24.60
2019-04-25T11:06:09.720Z,24.60
2019-04-25T11:07:10.857Z,24.60
2019-04-25T11:08:13.637Z,24.70
2019-04-25T11:09:19.212Z,24.70
2019-04-25T11:10:23.485Z,24.80
2019-04-25T11:11:25.148Z,24.80
2019-04-25T11:12:26.504Z,24.90
2019-04-25T11:13:27.904Z,24.90
2019-04-25T11:14:29.535Z,25.00
2019-04-25T11:15:30.645Z,25.00
2019-04-25T11:16:33.188Z,25.10
2019-04-25T11:17:34.652Z,25.10
2019-04-25T11:18:35.676Z,25.20
2019-04-25T11:19:37.356Z,25.20
2019-04-25T11:20:38.709Z,25.20
2019-04-25T11:21:39.723Z,25.30
2019-04-25T11:22:40.944Z,25.30
2019-04-25T11:23:44.380Z,25.40
2019-04-25T11:24:45.832Z,25.40
2019-04-25T11:25:47.288Z,25.50
2019-04-25T11:26:51.138Z,25.60
2019-04-25T11:27:53.570Z,25.60
2019-04-25T11:28:54.983Z,25.60
2019-04-25T11:30:08.438Z,25.70
2019-04-25T11:30:59.410Z,25.80
2019-04-25T11:32:00.416Z,25.70
2019-04-25T11:33:01.561Z,25.70
2019-04-25T11:34:03.609Z,25.80
2019-04-25T11:35:05.163Z,25.80
2019-04-25T11:36:06.343Z,25.80
2019-04-25T11:37:07.372Z,25.90
2019-04-25T11:38:10.404Z,25.90
2019-04-25T11:39:17.080Z,25.90
2019-04-25T11:40:25.836Z,25.90
2019-04-25T11:41:26.847Z,26.00
2019-04-25T11:42:27.870Z,26.00
2019-04-25T11:43:28.887Z,26.10
2019-04-25T11:44:29.904Z,26.10
2019-04-25T11:45:31.572Z,26.00
2019-04-25T11:46:33.295Z,26.10
2019-04-25T11:47:34.560Z,26.10
2019-04-25T11:48:35.776Z,26.10
2019-04-25T11:49:36.788Z,26.20
2019-04-25T11:50:37.904Z,26.20
2019-04-25T11:51:38.917Z,26.30
2019-04-25T11:52:39.949Z,26.40
2019-04-25T11:53:40.964Z,26.40
2019-04-25T11:54:44.391Z,26.50
2019-04-25T11:55:47.718Z,26.50
2019-04-25T11:56:48.624Z,26.50
2019-04-25T11:57:51.332Z,26.50
2019-04-25T11:58:54.203Z,26.50
2019-04-25T11:59:55.979Z,26.50
2019-04-25T12:00:58.043Z,26.50
2019-04-25T12:01:59.308Z,26.50
2019-04-25T12:03:00.334Z,26.60
2019-04-25T12:04:01.359Z,26.60
2019-04-25T12:05:04.474Z,26.60
2019-04-25T12:06:05.689Z,26.50
2019-04-25T12:07:07.138Z,26.60
2019-04-25T12:08:10.248Z,26.60
2019-04-25T12:09:11.567Z,26.70
2019-04-25T12:10:12.692Z,26.70
2019-04-25T12:11:13.970Z,26.70
2019-04-25T12:12:15.324Z,26.70
2019-04-25T12:13:16.349Z,26.80
2019-04-25T12:14:17.558Z,26.80
2019-04-25T12:15:18.669Z,26.90
2019-04-25T12:16:19.776Z,26.90
2019-04-25T12:17:20.796Z,27.00
2019-04-25T12:18:21.828Z,27.00
2019-04-25T12:19:33.114Z,27.00
2019-04-25T12:20:25.778Z,27.10
2019-04-25T12:21:26.792Z,27.10
2019-04-25T12:22:27.799Z,27.20
2019-04-25T12:23:28.824Z,27.20
2019-04-25T12:24:29.935Z,27.20
2019-04-25T12:25:30.943Z,27.30
2019-04-25T12:26:33.701Z,27.30
2019-04-25T12:27:34.884Z,27.30
2019-04-25T12:28:36.019Z,27.30
2019-04-25T12:29:38.838Z,27.30
2019-04-25T12:30:40.498Z,27.40
2019-04-25T12:31:41.968Z,27.40
2019-04-25T12:32:44.152Z,27.40
2019-04-25T12:33:47.653Z,27.40
2019-04-25T12:34:48.240Z,27.40
2019-04-25T12:35:50.041Z,27.40
2019-04-25T12:36:51.160Z,27.50
2019-04-25T12:37:53.645Z,27.60
2019-04-25T12:38:55.573Z,27.60
2019-04-25T12:39:56.819Z,27.60
2019-04-25T12:40:57.836Z,27.70
2019-04-25T12:41:58.861Z,27.60
2019-04-25T12:42:59.873Z,27.60
2019-04-25T12:44:05.614Z,27.50
2019-04-25T12:45:18.139Z,27.50
2019-04-25T12:46:26.674Z,27.50
2019-04-25T12:47:35.167Z,27.60
2019-04-25T12:48:36.195Z,27.70
2019-04-25T12:49:37.290Z,27.70
2019-04-25T12:50:38.392Z,27.80
2019-04-25T12:51:39.512Z,27.70
2019-04-25T12:52:40.519Z,27.70
2019-04-25T12:53:41.555Z,27.70
2019-04-25T12:54:44.021Z,27.70
2019-04-25T12:55:45.184Z,27.70
2019-04-25T12:56:47.384Z,27.80
2019-04-25T12:57:49.449Z,27.90
2019-04-25T12:58:51.510Z,28.00
2019-04-25T12:59:55.142Z,28.00
2019-04-25T13:00:58.573Z,28.10
2019-04-25T13:01:58.507Z,28.20
2019-04-25T13:02:59.521Z,28.20
2019-04-25T13:04:00.549Z,28.30
2019-04-25T13:05:05.523Z,28.30
2019-04-25T13:06:05.977Z,28.40
2019-04-25T13:07:07.192Z,28.50
2019-04-25T13:08:08.212Z,28.50
2019-04-25T13:09:10.384Z,28.50
2019-04-25T13:10:13.125Z,28.60
2019-04-25T13:11:14.720Z,28.50
2019-04-25T13:12:15.941Z,28.50
2019-04-25T13:13:17.604Z,28.50
2019-04-25T13:14:19.577Z,28.40
2019-04-25T13:15:20.609Z,28.40
2019-04-25T13:16:21.633Z,28.50
2019-04-25T13:17:24.136Z,28.50
2019-04-25T13:18:25.276Z,28.50
2019-04-25T13:19:26.563Z,28.60
2019-04-25T13:20:27.725Z,28.60
2019-04-25T13:21:28.846Z,28.60
2019-04-25T13:22:29.864Z,28.50
2019-04-25T13:23:32.002Z,28.40
2019-04-25T13:24:33.214Z,28.40
2019-04-25T13:25:34.378Z,28.30
2019-04-25T13:26:43.523Z,28.40